sensor_id;sensor_type;location;lat;lon;timestamp;temperature;humidity
2441;DHT22;1231;53.988;9.470;2023-05-09T00:01:38;13.00;57.90
2441;DHT22;1231;53.988;9.470;2023-05-09T00:04:29;13.00;57.80
2441;DHT22;1231;53.988;9.470;2023-05-09T00:07:22;13.00;57.80
2441;DHT22;1231;53.988;9.470;2023-05-09T00:10:13;13.00;57.40
2441;DHT22;1231;53.988;9.470;2023-05-09T00:13:04;13.00;57.40
2441;DHT22;1231;53.988;9.470;2023-05-09T00:15:55;13.00;57.80
2441;DHT22;1231;53.988;9.470;2023-05-09T00:18:49;13.00;57.40
2441;DHT22;1231;53.988;9.470;2023-05-09T00:21:40;13.00;57.40
2441;DHT22;1231;53.988;9.470;2023-05-09T00:24:31;13.00;57.30
2441;DHT22;1231;53.988;9.470;2023-05-09T00:27:22;13.00;57.20
2441;DHT22;1231;53.988;9.470;2023-05-09T00:30:13;13.00;57.40
2441;DHT22;1231;53.988;9.470;2023-05-09T00:33:04;13.00;57.30
2441;DHT22;1231;53.988;9.470;2023-05-09T00:35:56;13.00;57.30
2441;DHT22;1231;53.988;9.470;2023-05-09T00:38:46;13.00;57.50
2441;DHT22;1231;53.988;9.470;2023-05-09T00:41:38;13.00;57.50
2441;DHT22;1231;53.988;9.470;2023-05-09T00:44:29;12.90;57.80
2441;DHT22;1231;53.988;9.470;2023-05-09T00:47:22;12.90;57.60
2441;DHT22;1231;53.988;9.470;2023-05-09T00:50:13;12.90;57.50
2441;DHT22;1231;53.988;9.470;2023-05-09T00:53:04;12.90;57.70
2441;DHT22;1231;53.988;9.470;2023-05-09T00:55:55;12.90;57.70
2441;DHT22;1231;53.988;9.470;2023-05-09T00:58:47;12.80;57.50
2441;DHT22;1231;53.988;9.470;2023-05-09T01:01:38;12.80;57.70
2441;DHT22;1231;53.988;9.470;2023-05-09T01:04:29;12.80;57.70
2441;DHT22;1231;53.988;9.470;2023-05-09T01:13:43;12.70;58.30
2441;DHT22;1231;53.988;9.470;2023-05-09T01:16:55;12.70;58.00
2441;DHT22;1231;53.988;9.470;2023-05-09T01:20:04;12.70;58.40
2441;DHT22;1231;53.988;9.470;2023-05-09T01:23:35;12.60;58.10
2441;DHT22;1231;53.988;9.470;2023-05-09T01:29:56;12.60;58.30
2441;DHT22;1231;53.988;9.470;2023-05-09T01:32:48;12.60;58.40
2441;DHT22;1231;53.988;9.470;2023-05-09T01:35:44;12.50;57.80
2441;DHT22;1231;53.988;9.470;2023-05-09T01:38:36;12.60;57.80
2441;DHT22;1231;53.988;9.470;2023-05-09T01:41:31;12.60;57.80
2441;DHT22;1231;53.988;9.470;2023-05-09T01:44:24;12.60;57.90
2441;DHT22;1231;53.988;9.470;2023-05-09T01:47:17;12.60;58.10
2441;DHT22;1231;53.988;9.470;2023-05-09T01:50:11;12.50;58.40
2441;DHT22;1231;53.988;9.470;2023-05-09T01:53:04;12.50;58.50
2441;DHT22;1231;53.988;9.470;2023-05-09T01:55:57;12.50;57.90
2441;DHT22;1231;53.988;9.470;2023-05-09T01:58:50;12.50;58.20
2441;DHT22;1231;53.988;9.470;2023-05-09T02:01:42;12.50;58.20
2441;DHT22;1231;53.988;9.470;2023-05-09T02:04:34;12.50;58.20
2441;DHT22;1231;53.988;9.470;2023-05-09T02:07:26;12.40;58.20
2441;DHT22;1231;53.988;9.470;2023-05-09T02:10:18;12.50;58.80
2441;DHT22;1231;53.988;9.470;2023-05-09T02:13:17;12.40;59.30
2441;DHT22;1231;53.988;9.470;2023-05-09T02:16:08;12.40;58.90
2441;DHT22;1231;53.988;9.470;2023-05-09T02:19:00;12.30;59.10
2441;DHT22;1231;53.988;9.470;2023-05-09T02:22:22;12.30;59.00
2441;DHT22;1231;53.988;9.470;2023-05-09T02:25:19;12.30;59.10
2441;DHT22;1231;53.988;9.470;2023-05-09T02:28:11;12.30;59.40
2441;DHT22;1231;53.988;9.470;2023-05-09T02:31:04;12.30;59.00
2441;DHT22;1231;53.988;9.470;2023-05-09T02:33:56;12.30;59.10
2441;DHT22;1231;53.988;9.470;2023-05-09T02:36:48;12.30;59.10
2441;DHT22;1231;53.988;9.470;2023-05-09T02:39:39;12.20;59.10
2441;DHT22;1231;53.988;9.470;2023-05-09T02:42:30;12.20;59.40
2441;DHT22;1231;53.988;9.470;2023-05-09T02:45:21;12.20;59.40
2441;DHT22;1231;53.988;9.470;2023-05-09T02:48:12;12.20;59.50
2441;DHT22;1231;53.988;9.470;2023-05-09T02:51:03;12.20;59.50
2441;DHT22;1231;53.988;9.470;2023-05-09T02:53:54;12.30;59.60
2441;DHT22;1231;53.988;9.470;2023-05-09T02:56:45;12.30;60.00
2441;DHT22;1231;53.988;9.470;2023-05-09T02:59:36;12.30;60.10
2441;DHT22;1231;53.988;9.470;2023-05-09T03:02:27;12.30;60.00
2441;DHT22;1231;53.988;9.470;2023-05-09T03:05:18;12.30;59.90
2441;DHT22;1231;53.988;9.470;2023-05-09T03:08:09;12.20;60.20
2441;DHT22;1231;53.988;9.470;2023-05-09T03:11:00;12.20;60.30
2441;DHT22;1231;53.988;9.470;2023-05-09T03:13:51;12.20;60.40
2441;DHT22;1231;53.988;9.470;2023-05-09T03:16:41;12.20;60.40
2441;DHT22;1231;53.988;9.470;2023-05-09T03:19:39;12.10;60.50
2441;DHT22;1231;53.988;9.470;2023-05-09T03:22:30;12.00;60.70
2441;DHT22;1231;53.988;9.470;2023-05-09T03:25:21;12.00;60.90
2441;DHT22;1231;53.988;9.470;2023-05-09T03:28:12;12.00;61.20
2441;DHT22;1231;53.988;9.470;2023-05-09T03:31:03;11.90;61.20
2441;DHT22;1231;53.988;9.470;2023-05-09T03:33:54;11.90;61.50
2441;DHT22;1231;53.988;9.470;2023-05-09T03:36:45;11.80;61.90
2441;DHT22;1231;53.988;9.470;2023-05-09T03:39:36;11.80;62.00
2441;DHT22;1231;53.988;9.470;2023-05-09T03:42:27;11.70;62.30
2441;DHT22;1231;53.988;9.470;2023-05-09T03:45:18;11.70;62.40
2441;DHT22;1231;53.988;9.470;2023-05-09T03:48:09;11.70;62.60
2441;DHT22;1231;53.988;9.470;2023-05-09T03:51:00;11.70;62.90
2441;DHT22;1231;53.988;9.470;2023-05-09T03:53:52;11.60;63.10
2441;DHT22;1231;53.988;9.470;2023-05-09T03:56:43;11.60;63.20
2441;DHT22;1231;53.988;9.470;2023-05-09T03:59:34;11.60;63.20
2441;DHT22;1231;53.988;9.470;2023-05-09T04:02:25;11.50;63.20
2441;DHT22;1231;53.988;9.470;2023-05-09T04:05:16;11.50;63.30
2441;DHT22;1231;53.988;9.470;2023-05-09T04:08:07;11.60;63.70
2441;DHT22;1231;53.988;9.470;2023-05-09T04:10:58;11.60;63.60
2441;DHT22;1231;53.988;9.470;2023-05-09T04:13:49;11.60;63.80
2441;DHT22;1231;53.988;9.470;2023-05-09T04:16:40;11.60;64.30
2441;DHT22;1231;53.988;9.470;2023-05-09T04:19:31;11.70;63.80
2441;DHT22;1231;53.988;9.470;2023-05-09T04:22:22;11.80;63.70
2441;DHT22;1231;53.988;9.470;2023-05-09T04:25:13;12.10;63.30
2441;DHT22;1231;53.988;9.470;2023-05-09T04:28:05;12.30;62.50
2441;DHT22;1231;53.988;9.470;2023-05-09T04:30:56;12.60;62.30
2441;DHT22;1231;53.988;9.470;2023-05-09T04:33:47;12.80;61.10
2441;DHT22;1231;53.988;9.470;2023-05-09T04:36:38;13.00;60.60
2441;DHT22;1231;53.988;9.470;2023-05-09T04:39:29;13.00;60.50
2441;DHT22;1231;53.988;9.470;2023-05-09T04:42:20;13.10;60.50
2441;DHT22;1231;53.988;9.470;2023-05-09T04:45:11;13.10;60.50
2441;DHT22;1231;53.988;9.470;2023-05-09T04:48:02;13.10;60.10
2441;DHT22;1231;53.988;9.470;2023-05-09T04:50:53;13.00;60.20
2441;DHT22;1231;53.988;9.470;2023-05-09T04:53:44;13.00;60.10
2441;DHT22;1231;53.988;9.470;2023-05-09T04:56:35;13.00;60.20
2441;DHT22;1231;53.988;9.470;2023-05-09T04:59:26;12.80;60.60
2441;DHT22;1231;53.988;9.470;2023-05-09T05:02:17;12.70;61.00
2441;DHT22;1231;53.988;9.470;2023-05-09T05:05:08;12.70;61.40
2441;DHT22;1231;53.988;9.470;2023-05-09T05:07:59;12.60;61.70
2441;DHT22;1231;53.988;9.470;2023-05-09T05:10:50;12.60;62.00
2441;DHT22;1231;53.988;9.470;2023-05-09T05:13:41;12.70;61.70
2441;DHT22;1231;53.988;9.470;2023-05-09T05:16:32;12.70;61.60
2441;DHT22;1231;53.988;9.470;2023-05-09T05:19:23;12.80;61.60
2441;DHT22;1231;53.988;9.470;2023-05-09T05:22:14;12.90;62.10
2441;DHT22;1231;53.988;9.470;2023-05-09T05:25:05;13.00;62.40
2441;DHT22;1231;53.988;9.470;2023-05-09T05:27:56;13.20;61.80
2441;DHT22;1231;53.988;9.470;2023-05-09T05:30:47;13.30;61.70
2441;DHT22;1231;53.988;9.470;2023-05-09T05:33:38;13.50;61.20
2441;DHT22;1231;53.988;9.470;2023-05-09T05:36:29;13.50;60.80
2441;DHT22;1231;53.988;9.470;2023-05-09T05:39:21;13.60;60.80
2441;DHT22;1231;53.988;9.470;2023-05-09T05:42:12;13.60;61.00
2441;DHT22;1231;53.988;9.470;2023-05-09T05:45:03;13.60;60.80
2441;DHT22;1231;53.988;9.470;2023-05-09T05:47:54;13.60;60.80
2441;DHT22;1231;53.988;9.470;2023-05-09T05:50:45;13.70;60.90
2441;DHT22;1231;53.988;9.470;2023-05-09T05:53:36;13.80;61.10
2441;DHT22;1231;53.988;9.470;2023-05-09T05:56:27;14.00;60.90
2441;DHT22;1231;53.988;9.470;2023-05-09T05:59:25;14.30;60.60
2441;DHT22;1231;53.988;9.470;2023-05-09T06:02:16;14.60;59.90
2441;DHT22;1231;53.988;9.470;2023-05-09T06:05:08;14.80;59.70
2441;DHT22;1231;53.988;9.470;2023-05-09T06:07:58;14.80;59.00
2441;DHT22;1231;53.988;9.470;2023-05-09T06:10:49;14.70;58.60
2441;DHT22;1231;53.988;9.470;2023-05-09T06:13:40;14.70;58.60
2441;DHT22;1231;53.988;9.470;2023-05-09T06:16:31;14.60;59.00
2441;DHT22;1231;53.988;9.470;2023-05-09T06:19:22;14.60;59.10
2441;DHT22;1231;53.988;9.470;2023-05-09T06:22:13;14.50;59.10
2441;DHT22;1231;53.988;9.470;2023-05-09T06:25:05;14.50;59.70
2441;DHT22;1231;53.988;9.470;2023-05-09T06:27:56;14.90;60.20
2441;DHT22;1231;53.988;9.470;2023-05-09T06:30:47;16.10;58.70
2441;DHT22;1231;53.988;9.470;2023-05-09T06:33:37;17.40;55.70
2441;DHT22;1231;53.988;9.470;2023-05-09T06:36:28;18.80;52.30
2441;DHT22;1231;53.988;9.470;2023-05-09T06:39:20;20.10;50.10
2441;DHT22;1231;53.988;9.470;2023-05-09T06:42:11;21.10;47.00
2441;DHT22;1231;53.988;9.470;2023-05-09T06:45:02;21.80;45.60
2441;DHT22;1231;53.988;9.470;2023-05-09T06:47:53;22.60;45.00
2441;DHT22;1231;53.988;9.470;2023-05-09T06:50:43;23.60;44.00
2441;DHT22;1231;53.988;9.470;2023-05-09T06:53:34;24.40;42.90
2441;DHT22;1231;53.988;9.470;2023-05-09T06:56:25;25.10;41.50
2441;DHT22;1231;53.988;9.470;2023-05-09T06:59:16;25.70;40.60
2441;DHT22;1231;53.988;9.470;2023-05-09T07:02:07;26.10;39.30
2441;DHT22;1231;53.988;9.470;2023-05-09T07:04:58;26.30;38.50
2441;DHT22;1231;53.988;9.470;2023-05-09T07:07:49;26.50;38.90
2441;DHT22;1231;53.988;9.470;2023-05-09T07:10:40;26.40;38.40
2441;DHT22;1231;53.988;9.470;2023-05-09T07:13:31;26.00;38.50
2441;DHT22;1231;53.988;9.470;2023-05-09T07:16:22;25.50;39.10
2441;DHT22;1231;53.988;9.470;2023-05-09T07:19:13;25.00;39.60
2441;DHT22;1231;53.988;9.470;2023-05-09T07:22:04;24.30;40.10
2441;DHT22;1231;53.988;9.470;2023-05-09T07:24:55;23.80;41.30
2441;DHT22;1231;53.988;9.470;2023-05-09T07:27:46;23.50;42.20
2441;DHT22;1231;53.988;9.470;2023-05-09T07:30:37;23.00;42.30
2441;DHT22;1231;53.988;9.470;2023-05-09T07:33:28;22.70;43.20
2441;DHT22;1231;53.988;9.470;2023-05-09T07:36:19;22.40;43.80
2441;DHT22;1231;53.988;9.470;2023-05-09T07:39:10;22.10;44.60
2441;DHT22;1231;53.988;9.470;2023-05-09T07:42:01;21.90;45.40
2441;DHT22;1231;53.988;9.470;2023-05-09T07:44:52;21.70;45.70
2441;DHT22;1231;53.988;9.470;2023-05-09T07:47:43;21.40;46.50
2441;DHT22;1231;53.988;9.470;2023-05-09T07:50:34;21.20;46.80
2441;DHT22;1231;53.988;9.470;2023-05-09T07:53:25;21.10;48.00
2441;DHT22;1231;53.988;9.470;2023-05-09T07:56:16;21.00;48.40
2441;DHT22;1231;53.988;9.470;2023-05-09T07:59:07;21.00;48.00
2441;DHT22;1231;53.988;9.470;2023-05-09T08:01:58;20.90;47.90
2441;DHT22;1231;53.988;9.470;2023-05-09T08:04:49;20.80;47.60
2441;DHT22;1231;53.988;9.470;2023-05-09T08:07:40;20.80;48.30
2441;DHT22;1231;53.988;9.470;2023-05-09T08:10:31;20.90;48.80
2441;DHT22;1231;53.988;9.470;2023-05-09T08:13:23;20.90;49.40
2441;DHT22;1231;53.988;9.470;2023-05-09T08:16:14;20.90;48.50
2441;DHT22;1231;53.988;9.470;2023-05-09T08:19:06;20.90;48.40
2441;DHT22;1231;53.988;9.470;2023-05-09T08:21:57;20.90;50.30
2441;DHT22;1231;53.988;9.470;2023-05-09T08:24:48;21.10;50.40
2441;DHT22;1231;53.988;9.470;2023-05-09T08:27:39;21.20;50.50
2441;DHT22;1231;53.988;9.470;2023-05-09T08:30:30;21.30;48.80
2441;DHT22;1231;53.988;9.470;2023-05-09T08:33:21;21.40;49.00
2441;DHT22;1231;53.988;9.470;2023-05-09T08:36:13;21.50;50.20
2441;DHT22;1231;53.988;9.470;2023-05-09T08:39:03;21.60;49.70
2441;DHT22;1231;53.988;9.470;2023-05-09T08:41:57;21.80;49.20
2441;DHT22;1231;53.988;9.470;2023-05-09T08:44:49;21.80;48.50
2441;DHT22;1231;53.988;9.470;2023-05-09T08:47:40;21.90;48.60
2441;DHT22;1231;53.988;9.470;2023-05-09T08:50:32;21.90;48.70
2441;DHT22;1231;53.988;9.470;2023-05-09T08:53:23;22.00;49.00
2441;DHT22;1231;53.988;9.470;2023-05-09T08:56:14;22.10;49.00
2441;DHT22;1231;53.988;9.470;2023-05-09T08:59:05;22.10;48.40
2441;DHT22;1231;53.988;9.470;2023-05-09T09:01:56;22.10;48.90
2441;DHT22;1231;53.988;9.470;2023-05-09T09:04:48;22.10;48.80
2441;DHT22;1231;53.988;9.470;2023-05-09T09:07:45;22.20;49.70
2441;DHT22;1231;53.988;9.470;2023-05-09T09:10:40;22.30;49.10
2441;DHT22;1231;53.988;9.470;2023-05-09T09:13:37;22.30;48.90
2441;DHT22;1231;53.988;9.470;2023-05-09T09:16:31;22.40;49.10
2441;DHT22;1231;53.988;9.470;2023-05-09T09:19:28;22.50;49.30
2441;DHT22;1231;53.988;9.470;2023-05-09T09:22:20;22.50;48.80
2441;DHT22;1231;53.988;9.470;2023-05-09T09:25:11;22.50;49.60
2441;DHT22;1231;53.988;9.470;2023-05-09T09:28:03;22.60;50.60
2441;DHT22;1231;53.988;9.470;2023-05-09T09:30:54;22.70;50.40
2441;DHT22;1231;53.988;9.470;2023-05-09T09:33:46;22.90;50.30
2441;DHT22;1231;53.988;9.470;2023-05-09T09:36:37;22.90;49.00
2441;DHT22;1231;53.988;9.470;2023-05-09T09:39:28;22.90;49.10
2441;DHT22;1231;53.988;9.470;2023-05-09T09:42:19;23.00;49.10
2441;DHT22;1231;53.988;9.470;2023-05-09T09:45:15;23.00;49.10
2441;DHT22;1231;53.988;9.470;2023-05-09T09:48:06;23.10;49.00
2441;DHT22;1231;53.988;9.470;2023-05-09T09:51:07;23.20;49.40
2441;DHT22;1231;53.988;9.470;2023-05-09T09:54:01;23.30;50.50
2441;DHT22;1231;53.988;9.470;2023-05-09T09:56:52;23.40;49.50
2441;DHT22;1231;53.988;9.470;2023-05-09T09:59:57;23.50;48.90
2441;DHT22;1231;53.988;9.470;2023-05-09T10:02:53;23.60;48.60
2441;DHT22;1231;53.988;9.470;2023-05-09T10:05:44;23.60;48.10
2441;DHT22;1231;53.988;9.470;2023-05-09T10:08:35;23.70;49.50
2441;DHT22;1231;53.988;9.470;2023-05-09T10:11:26;23.80;48.80
2441;DHT22;1231;53.988;9.470;2023-05-09T10:14:24;23.90;48.70
2441;DHT22;1231;53.988;9.470;2023-05-09T10:17:16;24.00;49.60
2441;DHT22;1231;53.988;9.470;2023-05-09T10:20:08;24.20;49.30
2441;DHT22;1231;53.988;9.470;2023-05-09T10:23:03;24.30;49.30
2441;DHT22;1231;53.988;9.470;2023-05-09T10:26:16;24.40;48.70
2441;DHT22;1231;53.988;9.470;2023-05-09T10:29:11;24.40;48.30
2441;DHT22;1231;53.988;9.470;2023-05-09T10:32:10;24.50;46.20
2441;DHT22;1231;53.988;9.470;2023-05-09T10:35:06;24.50;47.60
2441;DHT22;1231;53.988;9.470;2023-05-09T10:37:58;24.50;48.50
2441;DHT22;1231;53.988;9.470;2023-05-09T10:40:52;24.60;48.40
2441;DHT22;1231;53.988;9.470;2023-05-09T10:43:44;24.70;47.90
2441;DHT22;1231;53.988;9.470;2023-05-09T10:46:36;24.80;46.60
2441;DHT22;1231;53.988;9.470;2023-05-09T10:49:27;24.80;45.70
2441;DHT22;1231;53.988;9.470;2023-05-09T10:52:20;24.70;46.20
2441;DHT22;1231;53.988;9.470;2023-05-09T10:55:12;24.70;45.00
2441;DHT22;1231;53.988;9.470;2023-05-09T10:58:25;24.80;45.20
2441;DHT22;1231;53.988;9.470;2023-05-09T11:01:28;24.70;43.00
2441;DHT22;1231;53.988;9.470;2023-05-09T11:04:20;24.50;42.90
2441;DHT22;1231;53.988;9.470;2023-05-09T11:07:25;24.40;43.10
2441;DHT22;1231;53.988;9.470;2023-05-09T11:10:17;24.30;43.20
2441;DHT22;1231;53.988;9.470;2023-05-09T11:13:08;24.30;42.90
2441;DHT22;1231;53.988;9.470;2023-05-09T11:16:02;24.30;44.20
2441;DHT22;1231;53.988;9.470;2023-05-09T11:18:54;24.30;43.10
2441;DHT22;1231;53.988;9.470;2023-05-09T11:21:59;24.40;43.50
2441;DHT22;1231;53.988;9.470;2023-05-09T11:24:58;24.50;43.80
2441;DHT22;1231;53.988;9.470;2023-05-09T11:27:50;24.60;44.30
2441;DHT22;1231;53.988;9.470;2023-05-09T11:30:42;24.70;43.90
2441;DHT22;1231;53.988;9.470;2023-05-09T11:33:35;24.90;44.40
2441;DHT22;1231;53.988;9.470;2023-05-09T11:36:30;25.00;43.90
2441;DHT22;1231;53.988;9.470;2023-05-09T11:39:26;25.10;42.50
2441;DHT22;1231;53.988;9.470;2023-05-09T11:42:17;25.10;43.30
2441;DHT22;1231;53.988;9.470;2023-05-09T11:45:08;25.20;42.00
2441;DHT22;1231;53.988;9.470;2023-05-09T11:48:00;25.20;41.60
2441;DHT22;1231;53.988;9.470;2023-05-09T11:50:57;25.10;40.30
2441;DHT22;1231;53.988;9.470;2023-05-09T11:53:49;24.90;40.00
2441;DHT22;1231;53.988;9.470;2023-05-09T11:56:41;24.80;40.50
2441;DHT22;1231;53.988;9.470;2023-05-09T11:59:35;24.70;39.80
2441;DHT22;1231;53.988;9.470;2023-05-09T12:02:26;24.80;41.40
2441;DHT22;1231;53.988;9.470;2023-05-09T12:05:20;25.00;41.80
2441;DHT22;1231;53.988;9.470;2023-05-09T12:08:12;25.10;40.40
2441;DHT22;1231;53.988;9.470;2023-05-09T12:11:09;25.00;39.70
2441;DHT22;1231;53.988;9.470;2023-05-09T12:14:00;25.10;40.80
2441;DHT22;1231;53.988;9.470;2023-05-09T12:16:51;25.20;39.40
2441;DHT22;1231;53.988;9.470;2023-05-09T12:19:43;25.10;39.50
2441;DHT22;1231;53.988;9.470;2023-05-09T12:22:35;25.10;40.80
2441;DHT22;1231;53.988;9.470;2023-05-09T12:25:27;25.30;41.30
2441;DHT22;1231;53.988;9.470;2023-05-09T12:28:19;25.50;42.00
2441;DHT22;1231;53.988;9.470;2023-05-09T12:31:11;25.60;40.80
2441;DHT22;1231;53.988;9.470;2023-05-09T12:34:02;25.60;40.70
2441;DHT22;1231;53.988;9.470;2023-05-09T12:36:54;25.70;39.90
2441;DHT22;1231;53.988;9.470;2023-05-09T12:42:56;25.70;39.60
2441;DHT22;1231;53.988;9.470;2023-05-09T12:45:53;25.60;38.40
2441;DHT22;1231;53.988;9.470;2023-05-09T12:48:44;25.40;38.10
2441;DHT22;1231;53.988;9.470;2023-05-09T12:51:47;25.30;38.90
2441;DHT22;1231;53.988;9.470;2023-05-09T12:54:38;25.50;39.70
2441;DHT22;1231;53.988;9.470;2023-05-09T12:57:35;25.60;38.80
2441;DHT22;1231;53.988;9.470;2023-05-09T13:00:26;25.60;38.00
2441;DHT22;1231;53.988;9.470;2023-05-09T13:03:25;25.60;38.30
2441;DHT22;1231;53.988;9.470;2023-05-09T13:06:17;25.60;37.90
2441;DHT22;1231;53.988;9.470;2023-05-09T13:09:09;25.60;38.10
2441;DHT22;1231;53.988;9.470;2023-05-09T13:12:02;25.40;36.70
2441;DHT22;1231;53.988;9.470;2023-05-09T13:14:53;25.30;38.10
2441;DHT22;1231;53.988;9.470;2023-05-09T13:17:46;25.30;38.30
2441;DHT22;1231;53.988;9.470;2023-05-09T13:20:37;25.30;38.70
2441;DHT22;1231;53.988;9.470;2023-05-09T13:23:28;25.10;37.90
2441;DHT22;1231;53.988;9.470;2023-05-09T13:26:19;25.20;38.80
2441;DHT22;1231;53.988;9.470;2023-05-09T13:29:11;25.30;39.70
2441;DHT22;1231;53.988;9.470;2023-05-09T13:32:02;25.30;38.50
2441;DHT22;1231;53.988;9.470;2023-05-09T13:34:53;25.30;39.00
2441;DHT22;1231;53.988;9.470;2023-05-09T13:37:44;25.40;38.40
2441;DHT22;1231;53.988;9.470;2023-05-09T13:40:35;25.30;38.30
2441;DHT22;1231;53.988;9.470;2023-05-09T13:43:27;25.10;38.60
2441;DHT22;1231;53.988;9.470;2023-05-09T13:46:18;25.10;38.40
2441;DHT22;1231;53.988;9.470;2023-05-09T13:49:09;25.00;38.50
2441;DHT22;1231;53.988;9.470;2023-05-09T13:52:00;24.90;38.90
2441;DHT22;1231;53.988;9.470;2023-05-09T13:54:51;24.80;38.80
2441;DHT22;1231;53.988;9.470;2023-05-09T13:57:42;24.60;38.50
2441;DHT22;1231;53.988;9.470;2023-05-09T14:00:33;24.60;39.00
2441;DHT22;1231;53.988;9.470;2023-05-09T14:03:24;24.50;38.50
2441;DHT22;1231;53.988;9.470;2023-05-09T14:06:16;24.50;39.20
2441;DHT22;1231;53.988;9.470;2023-05-09T14:09:07;24.40;38.70
2441;DHT22;1231;53.988;9.470;2023-05-09T14:11:58;24.40;39.40
2441;DHT22;1231;53.988;9.470;2023-05-09T14:14:49;24.40;39.00
2441;DHT22;1231;53.988;9.470;2023-05-09T14:17:40;24.40;39.80
2441;DHT22;1231;53.988;9.470;2023-05-09T14:20:33;24.50;39.60
2441;DHT22;1231;53.988;9.470;2023-05-09T14:23:24;24.40;38.70
2441;DHT22;1231;53.988;9.470;2023-05-09T14:26:15;24.40;39.10
2441;DHT22;1231;53.988;9.470;2023-05-09T14:29:06;24.30;39.10
2441;DHT22;1231;53.988;9.470;2023-05-09T14:31:57;24.40;39.40
2441;DHT22;1231;53.988;9.470;2023-05-09T14:34:48;24.40;39.30
2441;DHT22;1231;53.988;9.470;2023-05-09T14:37:39;24.60;39.60
2441;DHT22;1231;53.988;9.470;2023-05-09T14:40:31;24.60;39.00
2441;DHT22;1231;53.988;9.470;2023-05-09T14:43:22;24.60;39.00
2441;DHT22;1231;53.988;9.470;2023-05-09T14:46:14;24.50;37.70
2441;DHT22;1231;53.988;9.470;2023-05-09T14:49:05;24.40;39.00
2441;DHT22;1231;53.988;9.470;2023-05-09T14:52:04;24.40;38.70
2441;DHT22;1231;53.988;9.470;2023-05-09T14:54:55;24.30;38.70
2441;DHT22;1231;53.988;9.470;2023-05-09T14:57:46;24.30;38.50
2441;DHT22;1231;53.988;9.470;2023-05-09T15:00:36;24.30;38.70
2441;DHT22;1231;53.988;9.470;2023-05-09T15:03:28;24.20;38.20
2441;DHT22;1231;53.988;9.470;2023-05-09T15:06:18;24.10;38.50
2441;DHT22;1231;53.988;9.470;2023-05-09T15:09:09;24.10;39.00
2441;DHT22;1231;53.988;9.470;2023-05-09T15:12:00;24.20;39.00
2441;DHT22;1231;53.988;9.470;2023-05-09T15:14:51;24.20;39.60
2441;DHT22;1231;53.988;9.470;2023-05-09T15:17:44;24.10;39.10
2441;DHT22;1231;53.988;9.470;2023-05-09T15:20:36;24.20;39.40
2441;DHT22;1231;53.988;9.470;2023-05-09T15:23:27;24.20;38.60
2441;DHT22;1231;53.988;9.470;2023-05-09T15:26:18;24.10;39.00
2441;DHT22;1231;53.988;9.470;2023-05-09T15:29:08;24.00;38.60
2441;DHT22;1231;53.988;9.470;2023-05-09T15:31:59;24.00;39.40
2441;DHT22;1231;53.988;9.470;2023-05-09T15:34:50;23.90;38.70
2441;DHT22;1231;53.988;9.470;2023-05-09T15:37:41;23.80;39.00
2441;DHT22;1231;53.988;9.470;2023-05-09T15:40:32;23.80;39.60
2441;DHT22;1231;53.988;9.470;2023-05-09T15:43:23;23.80;39.30
2441;DHT22;1231;53.988;9.470;2023-05-09T15:46:14;23.70;38.60
2441;DHT22;1231;53.988;9.470;2023-05-09T15:49:05;23.70;39.30
2441;DHT22;1231;53.988;9.470;2023-05-09T15:51:56;23.70;38.60
2441;DHT22;1231;53.988;9.470;2023-05-09T15:54:47;23.70;39.50
2441;DHT22;1231;53.988;9.470;2023-05-09T15:57:38;23.80;39.50
2441;DHT22;1231;53.988;9.470;2023-05-09T16:00:29;23.70;40.00
2441;DHT22;1231;53.988;9.470;2023-05-09T16:03:20;23.70;39.00
2441;DHT22;1231;53.988;9.470;2023-05-09T16:06:11;23.60;39.00
2441;DHT22;1231;53.988;9.470;2023-05-09T16:09:02;23.50;39.30
2441;DHT22;1231;53.988;9.470;2023-05-09T16:11:54;23.40;38.60
2441;DHT22;1231;53.988;9.470;2023-05-09T16:14:46;23.30;39.20
2441;DHT22;1231;53.988;9.470;2023-05-09T16:17:37;23.20;39.50
2441;DHT22;1231;53.988;9.470;2023-05-09T16:20:28;23.10;39.80
2441;DHT22;1231;53.988;9.470;2023-05-09T16:23:18;23.10;39.50
2441;DHT22;1231;53.988;9.470;2023-05-09T16:26:10;23.00;40.00
2441;DHT22;1231;53.988;9.470;2023-05-09T16:29:01;22.90;40.00
2441;DHT22;1231;53.988;9.470;2023-05-09T16:31:52;22.90;40.10
2441;DHT22;1231;53.988;9.470;2023-05-09T16:34:43;22.90;40.20
2441;DHT22;1231;53.988;9.470;2023-05-09T16:37:34;22.90;40.40
2441;DHT22;1231;53.988;9.470;2023-05-09T16:40:25;22.80;40.90
2441;DHT22;1231;53.988;9.470;2023-05-09T16:43:16;22.70;40.30
2441;DHT22;1231;53.988;9.470;2023-05-09T16:46:09;22.70;40.90
2441;DHT22;1231;53.988;9.470;2023-05-09T16:49:00;22.70;40.70
2441;DHT22;1231;53.988;9.470;2023-05-09T16:51:51;22.60;40.80
2441;DHT22;1231;53.988;9.470;2023-05-09T16:54:42;22.60;40.80
2441;DHT22;1231;53.988;9.470;2023-05-09T16:57:33;22.60;40.60
2441;DHT22;1231;53.988;9.470;2023-05-09T17:00:24;22.60;41.00
2441;DHT22;1231;53.988;9.470;2023-05-09T17:03:15;22.50;40.70
2441;DHT22;1231;53.988;9.470;2023-05-09T17:06:06;22.50;41.00
2441;DHT22;1231;53.988;9.470;2023-05-09T17:08:57;22.40;40.70
2441;DHT22;1231;53.988;9.470;2023-05-09T17:11:48;22.40;40.90
2441;DHT22;1231;53.988;9.470;2023-05-09T17:14:39;22.30;41.00
2441;DHT22;1231;53.988;9.470;2023-05-09T17:17:30;22.20;41.20
2441;DHT22;1231;53.988;9.470;2023-05-09T17:20:21;22.10;40.80
2441;DHT22;1231;53.988;9.470;2023-05-09T17:23:12;22.00;40.80
2441;DHT22;1231;53.988;9.470;2023-05-09T17:26:03;21.80;40.60
2441;DHT22;1231;53.988;9.470;2023-05-09T17:28:54;21.80;40.50
2441;DHT22;1231;53.988;9.470;2023-05-09T17:31:45;21.70;40.50
2441;DHT22;1231;53.988;9.470;2023-05-09T17:34:36;21.60;40.70
2441;DHT22;1231;53.988;9.470;2023-05-09T17:37:28;21.50;40.80
2441;DHT22;1231;53.988;9.470;2023-05-09T17:40:19;21.50;41.00
2441;DHT22;1231;53.988;9.470;2023-05-09T17:43:16;21.50;41.50
2441;DHT22;1231;53.988;9.470;2023-05-09T17:46:07;21.30;40.50
2441;DHT22;1231;53.988;9.470;2023-05-09T17:48:58;21.30;41.00
2441;DHT22;1231;53.988;9.470;2023-05-09T17:51:52;21.20;40.90
2441;DHT22;1231;53.988;9.470;2023-05-09T17:54:45;21.20;41.10
2441;DHT22;1231;53.988;9.470;2023-05-09T17:57:37;21.10;40.60
2441;DHT22;1231;53.988;9.470;2023-05-09T18:00:28;21.00;41.20
2441;DHT22;1231;53.988;9.470;2023-05-09T18:03:19;20.90;41.00
2441;DHT22;1231;53.988;9.470;2023-05-09T18:06:10;20.90;40.80
2441;DHT22;1231;53.988;9.470;2023-05-09T18:09:01;20.80;39.90
2441;DHT22;1231;53.988;9.470;2023-05-09T18:11:52;20.70;40.70
2441;DHT22;1231;53.988;9.470;2023-05-09T18:14:43;20.60;40.60
2441;DHT22;1231;53.988;9.470;2023-05-09T18:17:34;20.60;40.90
2441;DHT22;1231;53.988;9.470;2023-05-09T18:20:25;20.50;41.10
2441;DHT22;1231;53.988;9.470;2023-05-09T18:23:16;20.40;41.40
2441;DHT22;1231;53.988;9.470;2023-05-09T18:26:07;20.30;41.40
2441;DHT22;1231;53.988;9.470;2023-05-09T18:28:58;20.20;41.50
2441;DHT22;1231;53.988;9.470;2023-05-09T18:31:49;20.10;41.10
2441;DHT22;1231;53.988;9.470;2023-05-09T18:34:40;20.00;41.50
2441;DHT22;1231;53.988;9.470;2023-05-09T18:37:31;19.90;41.40
2441;DHT22;1231;53.988;9.470;2023-05-09T18:40:22;19.80;41.50
2441;DHT22;1231;53.988;9.470;2023-05-09T18:43:13;19.70;41.60
2441;DHT22;1231;53.988;9.470;2023-05-09T18:46:06;19.60;41.60
2441;DHT22;1231;53.988;9.470;2023-05-09T18:48:57;19.50;41.50
2441;DHT22;1231;53.988;9.470;2023-05-09T18:51:48;19.40;41.50
2441;DHT22;1231;53.988;9.470;2023-05-09T18:54:39;19.40;42.00
2441;DHT22;1231;53.988;9.470;2023-05-09T18:57:30;19.30;41.70